createdAt,value
2018-06-20T00:00:26.261Z,21.84
2018-06-20T00:01:26.114Z,21.8
2018-06-20T00:02:26.189Z,21.82
2018-06-20T00:03:26.077Z,21.81
2018-06-20T00:04:26.174Z,21.82
2018-06-20T00:05:26.104Z,21.83
2018-06-20T00:06:26.303Z,21.83
2018-06-20T00:07:26.368Z,21.82
2018-06-20T00:08:26.178Z,21.82
2018-06-20T00:09:26.124Z,21.8
2018-06-20T00:10:26.089Z,21.81
2018-06-20T00:11:26.133Z,21.82
2018-06-20T00:12:26.265Z,21.8
2018-06-20T00:13:26.134Z,21.8
2018-06-20T00:14:26.218Z,21.82
2018-06-20T00:15:26.238Z,21.83
2018-06-20T00:16:26.131Z,21.81
2018-06-20T00:17:26.143Z,21.81
2018-06-20T00:18:26.222Z,21.8
2018-06-20T00:19:26.202Z,21.79
2018-06-20T00:20:26.304Z,21.8
2018-06-20T00:21:26.165Z,21.81
2018-06-20T00:22:26.126Z,21.8
2018-06-20T00:23:26.182Z,21.8
2018-06-20T00:24:26.229Z,21.82
2018-06-20T00:25:26.367Z,21.8
2018-06-20T00:26:26.229Z,21.81
2018-06-20T00:27:26.229Z,21.81
2018-06-20T00:28:26.306Z,21.81
2018-06-20T00:29:26.070Z,21.81
2018-06-20T00:30:26.051Z,21.81
2018-06-20T00:31:26.290Z,21.82
2018-06-20T00:32:26.137Z,21.81
2018-06-20T00:33:26.378Z,21.81
2018-06-20T00:34:26.083Z,21.8
2018-06-20T00:35:26.301Z,21.8
2018-06-20T00:36:26.260Z,21.8
2018-06-20T00:37:26.283Z,21.8
2018-06-20T00:38:26.194Z,21.82
2018-06-20T00:39:26.138Z,21.82
2018-06-20T00:40:26.042Z,21.82
2018-06-20T00:41:26.308Z,21.8
2018-06-20T00:42:26.212Z,21.8
2018-06-20T00:43:26.229Z,21.8
2018-06-20T00:44:26.242Z,21.8
2018-06-20T00:45:26.437Z,21.8
2018-06-20T00:46:26.156Z,21.81
2018-06-20T00:47:26.292Z,21.8
2018-06-20T00:48:26.362Z,21.8
2018-06-20T00:49:26.182Z,21.8
2018-06-20T00:50:26.076Z,21.81
2018-06-20T00:51:26.093Z,21.8
2018-06-20T00:52:26.326Z,21.81
2018-06-20T00:53:26.362Z,21.79
2018-06-20T00:54:26.186Z,21.82
2018-06-20T00:55:26.177Z,21.8
2018-06-20T00:56:26.337Z,21.79
2018-06-20T00:57:26.136Z,21.8
2018-06-20T00:58:26.117Z,21.8
2018-06-20T00:59:26.101Z,21.81
2018-06-20T01:00:26.260Z,21.82
2018-06-20T01:01:26.220Z,21.8
2018-06-20T01:02:26.235Z,21.8
2018-06-20T01:03:26.278Z,21.82
2018-06-20T01:04:26.313Z,21.78
2018-06-20T01:05:26.123Z,21.82
2018-06-20T01:06:26.152Z,21.8
2018-06-20T01:07:26.388Z,21.8
2018-06-20T01:08:26.132Z,21.79
2018-06-20T01:09:26.117Z,21.82
2018-06-20T01:10:26.254Z,21.79
2018-06-20T01:11:26.486Z,21.79
2018-06-20T01:12:26.089Z,21.8
2018-06-20T01:13:26.348Z,21.8
2018-06-20T01:14:26.228Z,21.79
2018-06-20T01:15:26.056Z,21.79
2018-06-20T01:16:26.217Z,21.8
2018-06-20T01:17:26.062Z,21.8
2018-06-20T01:18:26.310Z,21.81
2018-06-20T01:19:26.262Z,21.79
2018-06-20T01:20:26.202Z,21.8
2018-06-20T01:21:26.347Z,21.77
2018-06-20T01:22:26.155Z,21.78
2018-06-20T01:23:26.366Z,21.79
2018-06-20T01:24:26.232Z,21.8
2018-06-20T01:25:26.267Z,21.76
2018-06-20T01:26:26.081Z,21.81
2018-06-20T01:27:26.028Z,21.8
2018-06-20T01:28:26.255Z,21.77
2018-06-20T01:29:26.224Z,21.79
2018-06-20T01:30:26.238Z,21.77
2018-06-20T01:31:26.319Z,21.78
2018-06-20T01:32:26.197Z,21.78
2018-06-20T01:33:26.169Z,21.78
2018-06-20T01:34:26.155Z,21.78
2018-06-20T01:35:26.075Z,21.8
2018-06-20T01:36:26.255Z,21.79
2018-06-20T01:37:26.210Z,21.77
2018-06-20T01:38:26.200Z,21.78
2018-06-20T01:39:26.298Z,21.79
2018-06-20T01:40:26.363Z,21.77
2018-06-20T01:41:26.046Z,21.79
2018-06-20T01:42:26.137Z,21.78
2018-06-20T01:43:26.071Z,21.78
2018-06-20T01:44:26.123Z,21.77
2018-06-20T01:45:26.198Z,21.79
2018-06-20T01:46:26.272Z,21.77
2018-06-20T01:47:26.250Z,21.8
2018-06-20T01:48:26.298Z,21.8
2018-06-20T01:49:26.221Z,21.78
2018-06-20T01:50:26.130Z,21.78
2018-06-20T01:51:26.116Z,21.79
2018-06-20T01:52:26.283Z,21.8
2018-06-20T01:53:26.023Z,21.79
2018-06-20T01:54:26.291Z,21.8
2018-06-20T01:55:26.357Z,21.78
2018-06-20T01:56:26.188Z,21.78
2018-06-20T01:57:26.305Z,21.79
2018-06-20T01:58:26.197Z,21.79
2018-06-20T01:59:26.058Z,21.8
2018-06-20T02:00:26.406Z,21.79
2018-06-20T02:01:26.340Z,21.77
2018-06-20T02:02:26.074Z,21.8
2018-06-20T02:03:26.221Z,21.78
2018-06-20T02:04:26.161Z,21.77
2018-06-20T02:05:26.421Z,21.79
2018-06-20T02:06:26.182Z,21.78
2018-06-20T02:07:26.112Z,21.77
2018-06-20T02:08:26.318Z,21.79
2018-06-20T02:09:26.032Z,21.78
2018-06-20T02:10:26.095Z,21.79
2018-06-20T02:11:26.196Z,21.79
2018-06-20T02:12:26.222Z,21.78
2018-06-20T02:13:26.253Z,21.78
2018-06-20T02:14:26.301Z,21.78
2018-06-20T02:15:26.392Z,21.77
2018-06-20T02:16:26.215Z,21.77
2018-06-20T02:17:26.305Z,21.78
2018-06-20T02:18:26.181Z,21.78
2018-06-20T02:19:26.188Z,21.77
2018-06-20T02:20:26.066Z,21.77
2018-06-20T02:21:26.215Z,21.8
2018-06-20T02:22:26.109Z,21.77
2018-06-20T02:23:26.262Z,21.77
2018-06-20T02:24:26.316Z,21.77
2018-06-20T02:25:26.357Z,21.76
2018-06-20T02:26:26.022Z,21.77
2018-06-20T02:27:26.174Z,21.77
2018-06-20T02:28:26.184Z,21.77
2018-06-20T02:29:26.052Z,21.77
2018-06-20T02:30:26.155Z,21.77
2018-06-20T02:31:26.098Z,21.77
2018-06-20T02:32:26.253Z,21.78
2018-06-20T02:33:26.303Z,21.78
2018-06-20T02:34:26.271Z,21.77
2018-06-20T02:35:26.272Z,21.75
2018-06-20T02:36:26.074Z,21.79
2018-06-20T02:37:26.209Z,21.77
2018-06-20T02:38:25.992Z,21.77
2018-06-20T02:39:26.386Z,21.78
2018-06-20T02:40:26.077Z,21.77
2018-06-20T02:41:26.175Z,21.77
2018-06-20T02:42:26.174Z,21.76
2018-06-20T02:43:26.247Z,21.76
2018-06-20T02:44:26.050Z,21.77
2018-06-20T02:45:26.430Z,21.76
2018-06-20T02:46:26.189Z,21.77
2018-06-20T02:47:26.156Z,21.77
2018-06-20T02:48:26.067Z,21.77
2018-06-20T02:49:26.221Z,21.77
2018-06-20T02:50:26.145Z,21.77
2018-06-20T02:51:26.311Z,21.77
2018-06-20T02:52:26.137Z,21.76
2018-06-20T02:53:26.228Z,21.78
2018-06-20T02:54:26.154Z,21.77
2018-06-20T02:55:26.385Z,21.74
2018-06-20T02:56:26.173Z,21.77
2018-06-20T02:57:26.226Z,21.78
2018-06-20T02:58:26.192Z,21.77
2018-06-20T02:59:26.118Z,21.76
2018-06-20T03:00:26.079Z,21.76
2018-06-20T03:01:26.245Z,21.76
2018-06-20T03:02:26.200Z,21.78
2018-06-20T03:03:26.210Z,21.75
2018-06-20T03:04:26.061Z,21.76
2018-06-20T03:05:26.093Z,21.76
2018-06-20T03:06:26.094Z,21.76
2018-06-20T03:07:26.063Z,21.75
2018-06-20T03:08:26.117Z,21.74
2018-06-20T03:09:26.141Z,21.77
2018-06-20T03:10:26.203Z,21.76
2018-06-20T03:11:26.086Z,21.77
2018-06-20T03:12:26.146Z,21.77
2018-06-20T03:13:26.272Z,21.76
2018-06-20T03:14:26.009Z,21.74
2018-06-20T03:15:26.301Z,21.77
2018-06-20T03:16:26.444Z,21.76
2018-06-20T03:17:26.068Z,21.75
2018-06-20T03:18:26.258Z,21.76
2018-06-20T03:19:26.215Z,21.75
2018-06-20T03:20:26.274Z,21.75
2018-06-20T03:21:26.382Z,21.77
2018-06-20T03:22:26.186Z,21.75
2018-06-20T03:23:26.066Z,21.77
2018-06-20T03:24:26.293Z,21.75
2018-06-20T03:25:26.272Z,21.74
2018-06-20T03:26:26.090Z,21.74
2018-06-20T03:27:26.739Z,21.77
2018-06-20T03:28:26.033Z,21.76
2018-06-20T03:29:26.116Z,21.78
2018-06-20T03:30:26.272Z,21.77
2018-06-20T03:31:26.153Z,21.74
2018-06-20T03:32:26.011Z,21.76
2018-06-20T03:33:26.182Z,21.77
2018-06-20T03:34:26.163Z,21.74
2018-06-20T03:35:26.279Z,21.77
2018-06-20T03:36:26.077Z,21.74
2018-06-20T03:37:26.127Z,21.74
2018-06-20T03:38:26.244Z,21.77
2018-06-20T03:39:26.234Z,21.76
2018-06-20T03:40:26.192Z,21.74
2018-06-20T03:41:25.971Z,21.74
2018-06-20T03:42:26.240Z,21.75
2018-06-20T03:43:26.248Z,21.75
2018-06-20T03:44:26.133Z,21.77
2018-06-20T03:45:26.351Z,21.75
2018-06-20T03:46:26.203Z,21.75
2018-06-20T03:47:26.174Z,21.75
2018-06-20T03:48:26.217Z,21.75
2018-06-20T03:49:26.096Z,21.75
2018-06-20T03:50:26.056Z,21.74
2018-06-20T03:51:26.137Z,21.75
2018-06-20T03:52:26.124Z,21.74
2018-06-20T03:53:26.177Z,21.74
2018-06-20T03:54:26.287Z,21.77
2018-06-20T03:55:26.139Z,21.76
2018-06-20T03:56:26.234Z,21.75
2018-06-20T03:57:26.088Z,21.76
2018-06-20T03:58:26.203Z,21.74
2018-06-20T03:59:26.054Z,21.76
2018-06-20T04:00:26.413Z,21.75
2018-06-20T04:01:26.161Z,21.75
2018-06-20T04:02:26.602Z,21.76
2018-06-20T04:03:30.737Z,21.77
2018-06-20T04:04:26.105Z,21.75
2018-06-20T04:05:26.642Z,21.74
2018-06-20T04:06:26.104Z,21.75
2018-06-20T04:07:26.212Z,21.74
2018-06-20T04:08:26.324Z,21.74
2018-06-20T04:09:26.044Z,21.74
2018-06-20T04:10:26.048Z,21.74
2018-06-20T04:11:26.176Z,21.76
2018-06-20T04:12:26.088Z,21.75
2018-06-20T04:13:26.125Z,21.75
2018-06-20T04:14:26.210Z,21.76
2018-06-20T04:15:26.240Z,21.76
2018-06-20T04:16:26.167Z,21.72
2018-06-20T04:17:26.241Z,21.75
2018-06-20T04:18:26.290Z,21.77
2018-06-20T04:19:26.016Z,21.74
2018-06-20T04:20:26.301Z,21.75
2018-06-20T04:21:26.244Z,21.74
2018-06-20T04:22:26.287Z,21.74
2018-06-20T04:23:26.139Z,21.75
2018-06-20T04:24:26.187Z,21.75
2018-06-20T04:25:26.349Z,21.74
2018-06-20T04:26:26.224Z,21.74
2018-06-20T04:27:26.347Z,21.77
2018-06-20T04:28:26.048Z,21.74
2018-06-20T04:29:26.211Z,21.75
2018-06-20T04:30:26.233Z,21.74
2018-06-20T04:31:26.288Z,21.76
2018-06-20T04:32:26.043Z,21.76
2018-06-20T04:33:26.158Z,21.77
2018-06-20T04:34:26.191Z,21.74
2018-06-20T04:35:26.070Z,21.74
2018-06-20T04:36:26.379Z,21.75
2018-06-20T04:37:25.937Z,21.72
2018-06-20T04:38:26.244Z,21.76
2018-06-20T04:39:26.109Z,21.75
2018-06-20T04:40:26.352Z,21.74
2018-06-20T04:41:26.240Z,21.76
2018-06-20T04:42:26.152Z,21.76
2018-06-20T04:43:26.258Z,21.74
2018-06-20T04:44:26.210Z,21.75
2018-06-20T04:45:26.062Z,21.75
2018-06-20T04:46:26.138Z,21.74
2018-06-20T04:47:26.108Z,21.75
2018-06-20T04:48:26.003Z,21.76
2018-06-20T04:49:26.146Z,21.74
2018-06-20T04:50:26.130Z,21.75
2018-06-20T04:51:26.036Z,21.75
2018-06-20T04:52:26.137Z,21.72
2018-06-20T04:53:26.110Z,21.74
2018-06-20T04:54:26.176Z,21.74
2018-06-20T04:55:36.430Z,21.75
2018-06-20T04:56:26.160Z,21.76
2018-06-20T04:57:26.212Z,21.76
2018-06-20T04:58:26.003Z,21.73
2018-06-20T04:59:26.178Z,21.73
2018-06-20T05:00:26.038Z,21.74
2018-06-20T05:01:26.042Z,21.72
2018-06-20T05:02:26.195Z,21.72
2018-06-20T05:03:26.032Z,21.75
2018-06-20T05:04:26.221Z,21.76
2018-06-20T05:05:26.196Z,21.74
2018-06-20T05:06:26.141Z,21.74
2018-06-20T05:07:26.062Z,21.74
2018-06-20T05:08:26.130Z,21.72
2018-06-20T05:09:26.180Z,21.74
2018-06-20T05:10:26.309Z,21.74
2018-06-20T05:11:26.177Z,21.75
2018-06-20T05:12:26.131Z,21.74
2018-06-20T05:13:26.010Z,21.73
2018-06-20T05:14:26.277Z,21.75
2018-06-20T05:15:26.183Z,21.75
2018-06-20T05:16:26.048Z,21.74
2018-06-20T05:17:26.096Z,21.74
2018-06-20T05:18:26.423Z,21.7
2018-06-20T05:19:26.325Z,21.73
2018-06-20T05:20:26.160Z,21.74
2018-06-20T05:21:26.206Z,21.75
2018-06-20T05:22:26.271Z,21.74
2018-06-20T05:23:26.332Z,21.73
2018-06-20T05:24:26.253Z,21.73
2018-06-20T05:25:26.055Z,21.73
2018-06-20T05:26:26.066Z,21.75
2018-06-20T05:27:26.588Z,21.76
2018-06-20T05:28:26.513Z,21.72
2018-06-20T05:29:26.119Z,21.73
2018-06-20T05:30:26.105Z,21.74
2018-06-20T05:31:26.268Z,21.74
2018-06-20T05:32:26.071Z,21.73
2018-06-20T05:33:26.077Z,21.74
2018-06-20T05:34:26.065Z,21.72
2018-06-20T05:35:26.156Z,21.74
2018-06-20T05:36:26.546Z,21.72
2018-06-20T05:37:26.059Z,21.72
2018-06-20T05:38:26.158Z,21.74
2018-06-20T05:39:26.568Z,21.74
2018-06-20T05:40:25.999Z,21.7
2018-06-20T05:41:26.366Z,21.74
2018-06-20T05:42:26.044Z,21.75
2018-06-20T05:43:26.094Z,21.72
2018-06-20T05:44:26.027Z,21.73
2018-06-20T05:45:26.041Z,21.73
2018-06-20T05:46:26.135Z,21.74
2018-06-20T05:47:26.162Z,21.73
2018-06-20T05:48:26.310Z,21.75
2018-06-20T05:49:26.049Z,21.73
2018-06-20T05:50:26.052Z,21.74
2018-06-20T05:51:26.094Z,21.74
2018-06-20T05:52:26.103Z,21.72
2018-06-20T05:53:26.045Z,21.73
2018-06-20T05:54:25.998Z,21.76
2018-06-20T05:55:26.221Z,21.72
2018-06-20T05:56:26.124Z,21.73
2018-06-20T05:57:26.246Z,21.72
2018-06-20T05:58:26.068Z,21.73
2018-06-20T05:59:26.230Z,21.74
2018-06-20T06:00:26.129Z,21.74
2018-06-20T06:01:26.222Z,21.73
2018-06-20T06:02:26.151Z,21.75
2018-06-20T06:03:25.987Z,21.74
2018-06-20T06:04:26.048Z,21.72
2018-06-20T06:05:26.094Z,21.73
2018-06-20T06:06:26.299Z,21.74
2018-06-20T06:07:26.148Z,21.73
2018-06-20T06:08:26.118Z,21.74
2018-06-20T06:09:26.048Z,21.74
2018-06-20T06:10:26.137Z,21.74
2018-06-20T06:11:25.986Z,21.74
2018-06-20T06:12:26.030Z,21.74
2018-06-20T06:13:26.124Z,21.72
2018-06-20T06:14:26.053Z,21.75
2018-06-20T06:15:26.404Z,21.7
2018-06-20T06:16:26.229Z,21.73
2018-06-20T06:17:26.224Z,21.73
2018-06-20T06:18:26.356Z,21.74
2018-06-20T06:19:26.242Z,21.72
2018-06-20T06:20:26.146Z,21.74
2018-06-20T06:21:36.128Z,21.74
2018-06-20T06:22:26.288Z,21.72
2018-06-20T06:23:26.052Z,21.72
2018-06-20T06:24:26.120Z,21.74
2018-06-20T06:25:25.963Z,21.72
2018-06-20T06:26:26.066Z,21.74
2018-06-20T06:27:26.051Z,21.73
2018-06-20T06:28:26.166Z,21.7
2018-06-20T06:29:26.345Z,21.73
2018-06-20T06:30:26.201Z,21.74
2018-06-20T06:31:26.049Z,21.72
2018-06-20T06:32:25.986Z,21.72
2018-06-20T06:33:26.183Z,21.74
2018-06-20T06:34:26.204Z,21.7
2018-06-20T06:35:26.079Z,21.72
2018-06-20T06:36:26.125Z,21.73
2018-06-20T06:37:26.274Z,21.73
2018-06-20T06:38:26.084Z,21.7
2018-06-20T06:39:26.049Z,21.73
2018-06-20T06:40:26.306Z,21.73
2018-06-20T06:41:26.067Z,21.72
2018-06-20T06:42:26.137Z,21.73
2018-06-20T06:43:26.062Z,21.7
2018-06-20T06:44:26.153Z,21.74
2018-06-20T06:45:26.089Z,21.73
2018-06-20T06:46:26.116Z,21.73
2018-06-20T06:47:26.200Z,21.72
2018-06-20T06:48:26.195Z,21.78
2018-06-20T06:49:26.189Z,21.8
2018-06-20T06:50:26.339Z,21.8
2018-06-20T06:51:26.109Z,21.8
2018-06-20T06:52:26.137Z,21.79
2018-06-20T06:53:26.124Z,21.79
2018-06-20T06:54:26.120Z,21.81
2018-06-20T06:55:26.171Z,21.79
2018-06-20T06:56:26.137Z,21.8
2018-06-20T06:57:26.219Z,21.79
2018-06-20T06:58:26.160Z,21.79
2018-06-20T06:59:26.144Z,21.79
2018-06-20T07:00:26.179Z,21.8
2018-06-20T07:01:26.181Z,21.78
2018-06-20T07:02:26.121Z,21.8
2018-06-20T07:03:36.176Z,21.76
2018-06-20T07:04:26.204Z,21.76
2018-06-20T07:05:26.212Z,21.77
2018-06-20T07:06:26.172Z,21.76
2018-06-20T07:07:26.218Z,21.75
2018-06-20T07:08:26.246Z,21.77
2018-06-20T07:09:26.253Z,21.77
2018-06-20T07:10:26.237Z,21.76
2018-06-20T07:11:26.238Z,21.77
2018-06-20T07:12:26.330Z,21.76
2018-06-20T07:13:26.272Z,21.75
2018-06-20T07:14:26.272Z,21.75
2018-06-20T07:15:26.538Z,21.74
2018-06-20T07:16:26.285Z,21.76
2018-06-20T07:17:26.295Z,21.75
2018-06-20T07:18:26.273Z,21.75
2018-06-20T07:19:26.289Z,21.76
2018-06-20T07:20:26.212Z,21.76
2018-06-20T07:21:26.334Z,21.78
2018-06-20T07:22:26.333Z,21.74
2018-06-20T07:23:26.341Z,21.76
2018-06-20T07:24:27.252Z,21.76
2018-06-20T07:25:26.356Z,21.74
2018-06-20T07:26:36.310Z,21.76
2018-06-20T07:27:26.353Z,21.76
2018-06-20T07:28:26.255Z,21.75
2018-06-20T07:29:26.763Z,21.74
2018-06-20T07:30:26.382Z,21.75
2018-06-20T07:31:26.373Z,21.75
2018-06-20T07:32:26.478Z,21.77
2018-06-20T07:33:26.383Z,21.78
2018-06-20T07:34:26.492Z,21.74
2018-06-20T07:35:26.653Z,21.74
2018-06-20T07:36:27.053Z,21.74
2018-06-20T07:37:26.419Z,21.77
2018-06-20T07:38:26.133Z,21.76
2018-06-20T07:39:26.386Z,21.81
2018-06-20T07:40:26.836Z,21.82
2018-06-20T07:41:26.426Z,21.81
2018-06-20T07:42:26.444Z,21.82
2018-06-20T07:43:26.422Z,21.81
2018-06-20T07:44:26.825Z,21.81
2018-06-20T07:45:26.463Z,21.81
2018-06-20T07:46:25.986Z,21.79
2018-06-20T07:47:36.148Z,21.8
2018-06-20T07:48:26.398Z,21.8
2018-06-20T07:49:26.452Z,21.76
2018-06-20T07:50:25.999Z,21.78
2018-06-20T07:51:26.578Z,21.77
2018-06-20T07:52:26.423Z,21.76
2018-06-20T07:53:26.488Z,21.77
2018-06-20T07:54:26.036Z,21.77
2018-06-20T07:55:25.999Z,21.76
2018-06-20T07:56:26.538Z,21.77
2018-06-20T07:57:26.448Z,21.76
2018-06-20T07:58:26.074Z,21.77
2018-06-20T07:59:25.912Z,21.76
2018-06-20T08:00:26.491Z,21.76
2018-06-20T08:01:26.284Z,21.76
2018-06-20T08:02:26.474Z,21.77
2018-06-20T08:03:26.457Z,21.77
2018-06-20T08:04:26.015Z,21.77
2018-06-20T08:05:26.454Z,21.76
2018-06-20T08:06:26.321Z,21.77
2018-06-20T08:07:26.584Z,21.77
2018-06-20T08:08:26.076Z,21.76
2018-06-20T08:09:25.977Z,21.77
2018-06-20T08:10:26.065Z,21.75
2018-06-20T08:11:26.293Z,21.77
2018-06-20T08:12:26.507Z,21.76
2018-06-20T08:13:26.361Z,21.76
2018-06-20T08:14:26.164Z,21.77
2018-06-20T08:15:26.131Z,21.75
2018-06-20T08:16:26.188Z,21.74
2018-06-20T08:17:26.077Z,21.76
2018-06-20T08:18:26.052Z,21.77
2018-06-20T08:19:25.908Z,21.74
2018-06-20T08:20:26.141Z,21.76
2018-06-20T08:21:26.070Z,21.78
2018-06-20T08:22:26.177Z,21.75
2018-06-20T08:23:26.066Z,21.75
2018-06-20T08:24:26.065Z,21.76
2018-06-20T08:25:26.228Z,21.76
2018-06-20T08:26:25.975Z,21.76
2018-06-20T08:27:26.001Z,21.77
2018-06-20T08:28:26.263Z,21.74
2018-06-20T08:29:26.201Z,21.76
2018-06-20T08:30:26.027Z,21.76
2018-06-20T08:31:26.116Z,21.74
2018-06-20T08:32:26.077Z,21.75
2018-06-20T08:33:26.145Z,21.76
2018-06-20T08:34:26.072Z,21.76
2018-06-20T08:35:26.013Z,21.75
2018-06-20T08:36:26.100Z,21.77
2018-06-20T08:37:26.089Z,21.75
2018-06-20T08:38:26.233Z,21.76
2018-06-20T08:39:26.163Z,21.76
2018-06-20T08:40:25.989Z,21.76
2018-06-20T08:41:26.041Z,21.75
2018-06-20T08:42:26.503Z,21.77
2018-06-20T08:43:25.952Z,21.76
2018-06-20T08:44:26.087Z,21.76
2018-06-20T08:45:26.203Z,21.76
2018-06-20T08:46:26.275Z,21.74
2018-06-20T08:47:26.113Z,21.74
2018-06-20T08:48:26.004Z,21.77
2018-06-20T08:49:26.255Z,21.75
2018-06-20T08:50:26.165Z,21.77
2018-06-20T08:51:25.992Z,21.76
2018-06-20T08:52:26.132Z,21.75
2018-06-20T08:53:26.090Z,21.75
2018-06-20T08:54:26.124Z,21.77
2018-06-20T08:56:03.073Z,21.75
2018-06-20T08:56:26.054Z,21.75
2018-06-20T08:57:26.285Z,21.75
2018-06-20T08:58:26.165Z,21.75
2018-06-20T08:59:25.954Z,21.74
2018-06-20T09:00:25.992Z,21.75
2018-06-20T09:01:26.212Z,21.75
2018-06-20T09:02:26.134Z,21.76
2018-06-20T09:03:26.198Z,21.75
2018-06-20T09:04:26.093Z,21.76
2018-06-20T09:05:26.259Z,21.76
2018-06-20T09:06:26.027Z,21.74
2018-06-20T09:07:26.128Z,21.75
2018-06-20T09:08:26.151Z,21.76
2018-06-20T09:09:26.036Z,21.75
2018-06-20T09:10:26.246Z,21.76
2018-06-20T09:11:26.042Z,21.74
2018-06-20T09:12:26.074Z,21.77
2018-06-20T09:13:26.089Z,21.75
2018-06-20T09:14:26.366Z,21.77
2018-06-20T09:15:26.245Z,21.74
2018-06-20T09:16:25.960Z,21.74
2018-06-20T09:17:26.105Z,21.75
2018-06-20T09:18:26.169Z,21.74
2018-06-20T09:19:26.210Z,21.77
2018-06-20T09:20:26.242Z,21.75
2018-06-20T09:21:26.033Z,21.75
2018-06-20T09:22:26.059Z,21.76
2018-06-20T09:23:26.173Z,21.74
2018-06-20T09:24:25.980Z,21.75
2018-06-20T09:25:26.148Z,21.74
2018-06-20T09:26:26.092Z,21.74
2018-06-20T09:27:25.954Z,21.77
2018-06-20T09:28:26.199Z,21.74
2018-06-20T09:29:26.093Z,21.74
2018-06-20T09:30:25.999Z,21.75
2018-06-20T09:31:26.060Z,21.75
2018-06-20T09:32:25.993Z,21.74
2018-06-20T09:33:26.112Z,21.76
2018-06-20T09:34:26.191Z,21.76
2018-06-20T09:35:26.300Z,21.75
2018-06-20T09:36:26.029Z,21.75
2018-06-20T09:37:26.063Z,21.76
2018-06-20T09:38:25.980Z,21.74
2018-06-20T09:39:26.221Z,21.75
2018-06-20T09:40:26.186Z,21.76
2018-06-20T09:41:26.046Z,21.74
2018-06-20T09:42:26.226Z,21.76
2018-06-20T09:43:26.042Z,21.74
2018-06-20T09:44:26.083Z,21.75
2018-06-20T09:45:25.988Z,21.76
2018-06-20T09:46:26.045Z,21.74
2018-06-20T09:47:26.030Z,21.74
2018-06-20T09:48:26.391Z,21.76
2018-06-20T09:49:26.139Z,21.74
2018-06-20T09:50:26.078Z,21.8
2018-06-20T09:51:26.113Z,21.8
2018-06-20T09:52:26.141Z,21.82
2018-06-20T09:53:26.072Z,21.81
2018-06-20T09:54:26.127Z,21.81
2018-06-20T09:55:26.161Z,21.82
2018-06-20T09:56:26.177Z,21.82
2018-06-20T09:57:26.163Z,21.83
2018-06-20T09:58:26.252Z,21.82
2018-06-20T09:59:26.004Z,21.84
2018-06-20T10:00:26.131Z,21.84
2018-06-20T10:01:26.438Z,21.88
2018-06-20T10:02:26.251Z,21.91
2018-06-20T10:03:26.198Z,21.89
2018-06-20T10:04:26.091Z,21.89
2018-06-20T10:05:26.009Z,21.91
2018-06-20T10:06:26.417Z,21.91
2018-06-20T10:07:26.128Z,21.91
2018-06-20T10:08:26.111Z,21.93
2018-06-20T10:09:27.429Z,21.94
2018-06-20T10:10:26.175Z,21.95
2018-06-20T10:11:26.056Z,21.97
2018-06-20T10:12:26.089Z,21.97
2018-06-20T10:13:25.970Z,21.97
2018-06-20T10:14:25.885Z,21.97
2018-06-20T10:15:26.224Z,21.97
2018-06-20T10:16:26.184Z,21.95
2018-06-20T10:17:26.098Z,21.93
2018-06-20T10:18:26.150Z,21.93
2018-06-20T10:19:26.113Z,21.91
2018-06-20T10:20:26.324Z,21.92
2018-06-20T10:21:26.466Z,21.9
2018-06-20T10:22:26.088Z,21.9
2018-06-20T10:23:26.026Z,21.89
2018-06-20T10:24:26.059Z,21.91
2018-06-20T10:25:26.103Z,21.9
2018-06-20T10:26:26.097Z,21.88
2018-06-20T10:27:26.117Z,21.9
2018-06-20T10:28:26.254Z,21.87
2018-06-20T10:29:26.077Z,21.87
2018-06-20T10:30:26.135Z,21.9
2018-06-20T10:31:26.129Z,21.85
2018-06-20T10:32:25.956Z,21.88
2018-06-20T10:33:26.110Z,21.88
2018-06-20T10:34:26.078Z,21.85
2018-06-20T10:35:26.140Z,21.89
2018-06-20T10:36:26.031Z,21.88
2018-06-20T10:37:26.129Z,21.87
2018-06-20T10:38:26.115Z,21.88
2018-06-20T10:39:26.148Z,21.87
2018-06-20T10:40:26.152Z,21.85
2018-06-20T10:41:25.927Z,21.83
2018-06-20T10:42:26.092Z,21.87
2018-06-20T10:43:26.084Z,21.83
2018-06-20T10:44:26.128Z,21.87
2018-06-20T10:45:26.124Z,21.84
2018-06-20T10:46:26.792Z,21.84
2018-06-20T10:47:26.136Z,21.84
2018-06-20T10:48:26.052Z,21.83
2018-06-20T10:49:26.425Z,21.82
2018-06-20T10:50:26.067Z,21.83
2018-06-20T10:51:26.206Z,21.83
2018-06-20T10:52:26.069Z,21.81
2018-06-20T10:53:25.953Z,21.83
2018-06-20T10:54:26.352Z,21.84
2018-06-20T10:55:26.301Z,21.81
2018-06-20T10:56:26.068Z,21.83
2018-06-20T10:57:26.267Z,21.85
2018-06-20T10:58:25.980Z,21.82
2018-06-20T10:59:25.993Z,21.8
2018-06-20T11:00:26.310Z,21.8
2018-06-20T11:01:26.212Z,21.83
2018-06-20T11:02:25.994Z,21.83
2018-06-20T11:03:26.238Z,21.83
2018-06-20T11:04:26.163Z,21.81
2018-06-20T11:05:25.996Z,21.81
2018-06-20T11:06:26.183Z,21.82
2018-06-20T11:07:26.131Z,21.82
2018-06-20T11:08:26.105Z,21.8
2018-06-20T11:09:26.185Z,21.82
2018-06-20T11:10:25.995Z,21.81
2018-06-20T11:11:26.091Z,21.83
2018-06-20T11:12:26.160Z,21.83
2018-06-20T11:13:26.140Z,21.81
2018-06-20T11:14:26.006Z,21.82
2018-06-20T11:15:26.611Z,21.81
2018-06-20T11:16:26.002Z,21.81
2018-06-20T11:17:25.953Z,21.8
2018-06-20T11:18:26.016Z,21.83
2018-06-20T11:19:26.156Z,21.81
2018-06-20T11:20:26.123Z,21.81
2018-06-20T11:21:26.104Z,21.83
2018-06-20T11:22:26.150Z,21.8
2018-06-20T11:23:26.100Z,21.82
2018-06-20T11:24:25.940Z,21.83
2018-06-20T11:25:26.058Z,21.81
2018-06-20T11:26:35.965Z,21.81
2018-06-20T11:27:26.170Z,21.81
2018-06-20T11:28:25.994Z,21.8
2018-06-20T11:29:25.911Z,21.83
2018-06-20T11:30:26.089Z,21.81
2018-06-20T11:31:26.155Z,21.79
2018-06-20T11:32:26.202Z,21.8
2018-06-20T11:33:26.200Z,21.81
2018-06-20T11:34:26.131Z,21.8
2018-06-20T11:35:26.076Z,21.79
2018-06-20T11:36:26.154Z,21.8
2018-06-20T11:37:25.940Z,21.78
2018-06-20T11:38:25.929Z,21.82
2018-06-20T11:39:26.309Z,21.81
2018-06-20T11:40:25.987Z,21.8
2018-06-20T11:41:26.086Z,21.79
2018-06-20T11:42:26.021Z,21.79
2018-06-20T11:43:26.131Z,21.8
2018-06-20T11:44:26.004Z,21.79
2018-06-20T11:45:25.989Z,21.8
2018-06-20T11:46:26.160Z,21.8
2018-06-20T11:47:25.869Z,21.8
2018-06-20T11:48:26.090Z,21.8
2018-06-20T11:49:25.949Z,21.8
2018-06-20T11:50:25.964Z,21.79
2018-06-20T11:51:26.208Z,21.8
2018-06-20T11:52:25.984Z,21.79
2018-06-20T11:53:25.924Z,21.79
2018-06-20T11:54:26.356Z,21.81
2018-06-20T11:55:25.996Z,21.77
2018-06-20T11:56:25.972Z,21.79
2018-06-20T11:57:26.070Z,21.78
2018-06-20T11:58:25.970Z,21.8
2018-06-20T11:59:26.101Z,21.8
2018-06-20T12:00:26.257Z,21.77
2018-06-20T12:01:26.155Z,21.8
2018-06-20T12:02:26.056Z,21.8
2018-06-20T12:03:26.065Z,21.79
2018-06-20T12:04:26.146Z,21.79
2018-06-20T12:05:26.016Z,21.8
2018-06-20T12:06:26.170Z,21.79
2018-06-20T12:07:25.882Z,21.8
2018-06-20T12:08:26.341Z,21.8
2018-06-20T12:09:26.127Z,21.77
2018-06-20T12:10:26.151Z,21.78
2018-06-20T12:11:26.090Z,21.8
2018-06-20T12:12:26.000Z,21.79
2018-06-20T12:13:25.911Z,21.8
2018-06-20T12:14:25.943Z,21.79
2018-06-20T12:15:26.059Z,21.78
2018-06-20T12:16:26.097Z,21.78
2018-06-20T12:17:26.001Z,21.77
2018-06-20T12:18:25.961Z,21.8
2018-06-20T12:19:26.044Z,21.78
2018-06-20T12:20:26.148Z,21.79
2018-06-20T12:21:26.145Z,21.79
2018-06-20T12:22:26.040Z,21.78
2018-06-20T12:23:25.953Z,21.78
2018-06-20T12:24:28.469Z,21.79
2018-06-20T12:25:26.081Z,21.79
2018-06-20T12:26:26.176Z,21.79
2018-06-20T12:27:26.036Z,21.8
2018-06-20T12:28:25.988Z,21.8
2018-06-20T12:29:26.781Z,21.78
2018-06-20T12:30:26.347Z,21.8
2018-06-20T12:31:26.090Z,21.8
2018-06-20T12:32:26.108Z,21.77
2018-06-20T12:33:26.125Z,21.8
2018-06-20T12:34:26.066Z,21.8
2018-06-20T12:35:26.167Z,21.81
2018-06-20T12:36:26.038Z,21.81
2018-06-20T12:37:26.111Z,21.79
2018-06-20T12:38:26.043Z,21.8
2018-06-20T12:39:26.065Z,21.8
2018-06-20T12:40:26.144Z,21.78
2018-06-20T12:41:26.076Z,21.8
2018-06-20T12:42:26.095Z,21.81
2018-06-20T12:43:26.151Z,21.78
2018-06-20T12:44:26.046Z,21.78
2018-06-20T12:45:26.024Z,21.79
2018-06-20T12:46:25.854Z,21.79
2018-06-20T12:47:25.850Z,21.8
2018-06-20T12:48:26.054Z,21.79
2018-06-20T12:49:26.035Z,21.78
2018-06-20T12:50:26.031Z,21.8
2018-06-20T12:51:25.924Z,21.8
2018-06-20T12:52:26.460Z,21.79
2018-06-20T12:53:25.911Z,21.79
2018-06-20T12:54:26.052Z,21.79
2018-06-20T12:55:25.943Z,21.79
2018-06-20T12:56:25.858Z,21.79